createdAt,value
2023-06-18T00:00:59.434Z,100.00
2023-06-18T00:03:47.802Z,100.00
2023-06-18T00:06:35.637Z,100.00
2023-06-18T00:09:25.104Z,100.00
2023-06-18T00:12:13.095Z,100.00
2023-06-18T00:15:01.123Z,100.00
2023-06-18T00:17:50.411Z,100.00
2023-06-18T00:20:38.460Z,100.00
2023-06-18T00:23:26.431Z,100.00
2023-06-18T00:26:14.396Z,100.00
2023-06-18T00:29:02.306Z,100.00
2023-06-18T00:31:50.247Z,100.00
2023-06-18T00:34:42.946Z,100.00
2023-06-18T00:37:31.203Z,100.00
2023-06-18T00:40:19.017Z,100.00
2023-06-18T00:43:08.052Z,100.00
2023-06-18T00:45:55.999Z,100.00
2023-06-18T00:48:46.348Z,100.00
2023-06-18T00:51:36.159Z,100.00
2023-06-18T00:54:24.485Z,100.00
2023-06-18T00:57:15.449Z,100.00
2023-06-18T01:00:06.224Z,100.00
2023-06-18T01:02:54.976Z,100.00
2023-06-18T01:05:43.462Z,100.00
2023-06-18T01:08:34.289Z,100.00
2023-06-18T01:11:23.120Z,100.00
2023-06-18T01:14:11.378Z,100.00
2023-06-18T01:17:01.074Z,100.00
2023-06-18T01:19:53.134Z,100.00
2023-06-18T01:22:47.533Z,100.00
2023-06-18T01:25:38.793Z,100.00
2023-06-18T01:28:30.397Z,100.00
2023-06-18T01:31:21.963Z,100.00
2023-06-18T01:34:10.094Z,100.00
2023-06-18T01:37:04.989Z,100.00
2023-06-18T01:39:59.036Z,100.00
2023-06-18T01:42:53.602Z,100.00
2023-06-18T01:45:43.517Z,100.00
2023-06-18T01:48:37.964Z,100.00
2023-06-18T01:51:26.654Z,100.00
2023-06-18T01:54:16.216Z,100.00
2023-06-18T01:57:05.151Z,100.00
2023-06-18T01:59:54.250Z,100.00
2023-06-18T02:02:42.375Z,100.00
2023-06-18T02:05:30.675Z,100.00
2023-06-18T02:08:18.726Z,100.00
2023-06-18T02:11:06.439Z,100.00
2023-06-18T02:13:54.253Z,100.00
2023-06-18T02:16:44.091Z,100.00
2023-06-18T02:19:32.049Z,100.00
2023-06-18T02:22:19.883Z,100.00
2023-06-18T02:25:08.340Z,100.00
2023-06-18T02:27:56.534Z,100.00
2023-06-18T02:30:44.373Z,100.00
2023-06-18T02:33:33.770Z,100.00
2023-06-18T02:36:21.601Z,100.00
2023-06-18T02:39:10.088Z,100.00
2023-06-18T02:41:57.779Z,100.00
2023-06-18T02:44:46.913Z,100.00
2023-06-18T02:47:34.640Z,100.00
2023-06-18T02:50:24.166Z,100.00
2023-06-18T02:53:12.065Z,100.00
2023-06-18T02:55:59.763Z,100.00
2023-06-18T02:58:50.564Z,100.00
2023-06-18T03:01:38.612Z,100.00
2023-06-18T03:04:26.595Z,100.00
2023-06-18T03:07:15.904Z,100.00
2023-06-18T03:10:04.218Z,100.00
2023-06-18T03:12:52.030Z,100.00
2023-06-18T03:15:39.838Z,100.00
2023-06-18T03:18:27.637Z,100.00
2023-06-18T03:21:16.457Z,100.00
2023-06-18T03:24:06.644Z,100.00
2023-06-18T03:26:54.609Z,100.00
2023-06-18T03:29:42.979Z,100.00
2023-06-18T03:32:30.927Z,100.00
2023-06-18T03:35:19.776Z,100.00
2023-06-18T03:38:07.592Z,100.00
2023-06-18T03:40:57.026Z,100.00
2023-06-18T03:43:44.772Z,100.00
2023-06-18T03:46:33.321Z,100.00
2023-06-18T03:49:21.045Z,100.00
2023-06-18T03:52:09.608Z,100.00
2023-06-18T03:54:57.415Z,100.00
2023-06-18T03:57:46.766Z,100.00
2023-06-18T04:00:35.822Z,100.00
2023-06-18T04:03:23.996Z,100.00
2023-06-18T04:06:12.398Z,100.00
2023-06-18T04:09:00.161Z,100.00
2023-06-18T04:11:47.955Z,100.00
2023-06-18T04:14:37.739Z,100.00
2023-06-18T04:17:27.982Z,100.00
2023-06-18T04:20:16.036Z,100.00
2023-06-18T04:23:04.110Z,100.00
2023-06-18T04:25:52.324Z,100.00
2023-06-18T04:28:40.061Z,100.00
2023-06-18T04:31:29.363Z,100.00
2023-06-18T04:34:17.549Z,100.00
2023-06-18T04:37:05.770Z,100.00
2023-06-18T04:39:53.542Z,100.00
2023-06-18T04:42:41.335Z,100.00
2023-06-18T04:45:29.049Z,100.00
2023-06-18T04:48:18.773Z,100.00
2023-06-18T04:51:06.573Z,100.00
2023-06-18T04:53:54.390Z,100.00
2023-06-18T04:56:42.199Z,100.00
2023-06-18T04:59:30.142Z,100.00
2023-06-18T05:02:19.163Z,100.00
2023-06-18T05:05:09.462Z,100.00
2023-06-18T05:07:57.806Z,100.00
2023-06-18T05:10:45.654Z,100.00
2023-06-18T05:13:33.454Z,100.00
2023-06-18T05:16:21.276Z,100.00
2023-06-18T05:19:09.091Z,100.00
2023-06-18T05:21:59.263Z,100.00
2023-06-18T05:24:47.453Z,100.00
2023-06-18T05:27:35.269Z,100.00
2023-06-18T05:30:23.765Z,100.00
2023-06-18T05:33:11.862Z,100.00
2023-06-18T05:36:00.307Z,100.00
2023-06-18T05:38:49.655Z,100.00
2023-06-18T05:41:37.361Z,100.00
2023-06-18T05:44:25.296Z,100.00
2023-06-18T05:47:13.059Z,100.00
2023-06-18T05:50:01.013Z,100.00
2023-06-18T05:52:49.957Z,100.00
2023-06-18T05:55:39.066Z,100.00
2023-06-18T05:58:27.134Z,100.00
2023-06-18T06:01:15.586Z,100.00
2023-06-18T06:04:03.894Z,100.00
2023-06-18T06:06:51.760Z,100.00
2023-06-18T06:09:39.641Z,100.00
2023-06-18T06:12:28.790Z,100.00
2023-06-18T06:15:17.126Z,100.00
2023-06-18T06:18:05.000Z,100.00
2023-06-18T06:20:53.005Z,100.00
2023-06-18T06:23:41.243Z,100.00
2023-06-18T06:26:29.037Z,100.00
2023-06-18T06:29:18.192Z,100.00
2023-06-18T06:32:06.886Z,100.00
2023-06-18T06:34:54.613Z,100.00
2023-06-18T06:37:42.288Z,100.00
2023-06-18T06:40:30.267Z,100.00
2023-06-18T06:43:17.989Z,100.00
2023-06-18T06:46:07.417Z,100.00
2023-06-18T06:48:55.149Z,100.00
2023-06-18T06:51:44.361Z,100.00
2023-06-18T06:54:32.386Z,100.00
2023-06-18T06:57:20.158Z,100.00
2023-06-18T07:00:09.573Z,100.00
2023-06-18T07:02:58.704Z,100.00
2023-06-18T07:05:46.664Z,100.00
2023-06-18T07:08:34.433Z,100.00
2023-06-18T07:11:22.737Z,100.00
2023-06-18T07:14:10.511Z,100.00
2023-06-18T07:16:58.490Z,100.00
2023-06-18T07:19:47.654Z,100.00
2023-06-18T07:22:35.784Z,100.00
2023-06-18T07:25:23.470Z,100.00
2023-06-18T07:28:11.416Z,100.00
2023-06-18T07:30:59.127Z,100.00
2023-06-18T07:33:46.890Z,100.00
2023-06-18T07:36:36.250Z,100.00
2023-06-18T07:39:23.970Z,100.00
2023-06-18T07:42:13.260Z,100.00
2023-06-18T07:45:01.331Z,99.65
2023-06-18T07:47:49.212Z,98.47
2023-06-18T07:50:37.286Z,97.17
2023-06-18T07:53:26.891Z,97.91
2023-06-18T07:56:14.895Z,96.60
2023-06-18T07:59:02.979Z,97.33
2023-06-18T08:01:51.539Z,97.99
2023-06-18T08:04:40.062Z,97.47
2023-06-18T08:07:28.239Z,96.51
2023-06-18T08:10:17.270Z,94.15
2023-06-18T08:13:05.077Z,94.64
2023-06-18T08:15:52.768Z,92.92
2023-06-18T08:18:40.649Z,91.82
2023-06-18T08:21:28.399Z,92.06
2023-06-18T08:24:16.406Z,92.18
2023-06-18T08:27:06.367Z,91.27
2023-06-18T08:29:54.592Z,90.72
2023-06-18T08:32:42.332Z,89.87
2023-06-18T08:35:30.336Z,88.28
2023-06-18T08:38:18.086Z,89.02
2023-06-18T08:41:06.942Z,86.87
2023-06-18T08:43:56.145Z,84.71
2023-06-18T08:46:45.028Z,86.60
2023-06-18T08:49:33.139Z,86.41
2023-06-18T08:52:21.929Z,86.23
2023-06-18T08:55:14.948Z,86.57
2023-06-18T08:58:07.656Z,85.99
2023-06-18T09:00:56.876Z,85.28
2023-06-18T09:03:45.349Z,85.74
2023-06-18T09:06:33.320Z,86.29
2023-06-18T09:09:22.213Z,86.93
2023-06-18T09:12:11.499Z,84.51
2023-06-18T09:14:59.562Z,85.47
2023-06-18T09:17:52.956Z,85.14
2023-06-18T09:20:41.696Z,86.96
2023-06-18T09:23:29.460Z,83.85
2023-06-18T09:26:18.823Z,83.75
2023-06-18T09:29:07.291Z,82.99
2023-06-18T09:31:54.892Z,82.07
2023-06-18T09:34:45.383Z,81.11
2023-06-18T09:37:34.158Z,80.92
2023-06-18T09:40:23.852Z,80.08
2023-06-18T09:43:12.596Z,81.42
2023-06-18T09:46:00.482Z,81.82
2023-06-18T09:48:49.035Z,82.15
2023-06-18T09:51:42.237Z,83.21
2023-06-18T09:54:41.314Z,81.70
2023-06-18T09:57:29.010Z,81.99
2023-06-18T10:00:18.094Z,80.31
2023-06-18T10:03:07.581Z,80.20
2023-06-18T10:05:55.631Z,81.42
2023-06-18T10:08:46.560Z,80.53
2023-06-18T10:11:35.650Z,76.66
2023-06-18T10:14:25.366Z,74.65
2023-06-18T10:17:21.355Z,74.79
2023-06-18T10:20:11.448Z,75.35
2023-06-18T10:23:02.669Z,75.90
2023-06-18T10:25:52.683Z,76.92
2023-06-18T10:28:40.568Z,75.92
2023-06-18T10:31:28.796Z,74.04
2023-06-18T10:34:17.315Z,75.72
2023-06-18T10:37:06.197Z,74.23
2023-06-18T10:39:55.075Z,74.36
2023-06-18T10:42:49.973Z,74.36
2023-06-18T10:45:38.223Z,75.15
2023-06-18T10:48:28.987Z,76.13
2023-06-18T10:51:18.603Z,74.61
2023-06-18T10:54:23.419Z,74.89
2023-06-18T10:57:12.648Z,73.82
2023-06-18T11:00:02.030Z,72.44
2023-06-18T11:02:58.818Z,73.85
2023-06-18T11:05:48.818Z,73.91
2023-06-18T11:08:38.715Z,72.91
2023-06-18T11:11:27.327Z,73.25
2023-06-18T11:14:22.220Z,72.38
2023-06-18T11:17:12.432Z,71.35
2023-06-18T11:20:00.930Z,70.26
2023-06-18T11:22:49.715Z,70.96
2023-06-18T11:25:37.631Z,71.51
2023-06-18T11:28:26.994Z,71.40
2023-06-18T11:31:15.546Z,71.90
2023-06-18T11:34:08.941Z,71.74
2023-06-18T11:36:56.996Z,70.71
2023-06-18T11:39:45.131Z,70.29
2023-06-18T11:42:33.095Z,70.99
2023-06-18T11:45:22.650Z,71.76
2023-06-18T11:48:11.217Z,70.12
2023-06-18T11:51:00.335Z,71.39
2023-06-18T11:53:48.533Z,70.67
2023-06-18T11:56:36.448Z,70.80
2023-06-18T11:59:24.364Z,71.23
2023-06-18T12:02:13.459Z,70.35
2023-06-18T12:05:03.891Z,71.00
2023-06-18T12:07:53.279Z,71.31
2023-06-18T12:10:42.297Z,72.68
2023-06-18T12:13:36.407Z,71.77
2023-06-18T12:16:30.178Z,71.28
2023-06-18T12:19:20.300Z,71.00
2023-06-18T12:22:09.639Z,71.16
2023-06-18T12:24:58.959Z,67.13
2023-06-18T12:27:46.813Z,67.94
2023-06-18T12:30:37.749Z,71.37
2023-06-18T12:33:25.596Z,68.62
2023-06-18T12:36:13.682Z,68.35
2023-06-18T12:39:01.388Z,68.92
2023-06-18T12:41:50.670Z,69.06
2023-06-18T12:44:38.569Z,67.74
2023-06-18T12:47:26.808Z,66.92
2023-06-18T12:50:14.833Z,67.51
2023-06-18T12:53:16.787Z,67.32
2023-06-18T12:56:18.976Z,67.58
2023-06-18T12:59:17.745Z,66.20
2023-06-18T13:02:06.507Z,64.46
2023-06-18T13:04:55.120Z,65.09
2023-06-18T13:07:50.515Z,65.93
2023-06-18T13:10:38.270Z,66.61
2023-06-18T13:13:26.380Z,66.70
2023-06-18T13:16:15.774Z,66.78
2023-06-18T13:19:06.119Z,69.84
2023-06-18T13:21:54.729Z,68.43
2023-06-18T13:24:42.560Z,67.24
2023-06-18T13:27:30.746Z,66.09
2023-06-18T13:30:18.563Z,67.96
2023-06-18T13:33:08.163Z,66.85
2023-06-18T13:35:56.246Z,67.99
2023-06-18T13:38:44.303Z,67.11
2023-06-18T13:41:32.122Z,66.76
2023-06-18T13:44:20.121Z,68.11
2023-06-18T13:47:08.356Z,69.19
2023-06-18T13:49:57.405Z,66.11
2023-06-18T13:52:45.209Z,66.12
2023-06-18T13:55:32.905Z,68.70
2023-06-18T13:58:21.384Z,69.77
2023-06-18T14:01:09.345Z,65.65
2023-06-18T14:03:57.309Z,65.66
2023-06-18T14:06:47.039Z,66.60
2023-06-18T14:09:35.086Z,67.61
2023-06-18T14:12:22.955Z,66.96
2023-06-18T14:15:14.379Z,66.99
2023-06-18T14:18:02.211Z,67.45
2023-06-18T14:20:50.250Z,68.60
2023-06-18T14:23:40.989Z,66.43
2023-06-18T14:26:29.640Z,67.09
2023-06-18T14:29:17.858Z,67.88
2023-06-18T14:32:06.122Z,68.21
2023-06-18T14:34:54.164Z,67.38
2023-06-18T14:37:41.950Z,67.31
2023-06-18T14:40:31.326Z,68.25
2023-06-18T14:43:19.097Z,69.75
2023-06-18T14:46:06.974Z,66.25
2023-06-18T14:48:54.891Z,65.14
2023-06-18T14:51:42.608Z,65.99
2023-06-18T14:54:30.469Z,65.14
2023-06-18T14:57:20.468Z,65.81
2023-06-18T15:00:10.332Z,64.05
2023-06-18T15:02:58.235Z,62.71
2023-06-18T15:05:46.285Z,64.01
2023-06-18T15:08:35.377Z,68.00
2023-06-18T15:11:23.638Z,63.15
2023-06-18T15:14:12.860Z,64.78
2023-06-18T15:17:00.709Z,64.60
2023-06-18T15:19:56.380Z,63.17
2023-06-18T15:22:44.281Z,62.66
2023-06-18T15:25:32.313Z,63.91
2023-06-18T15:28:20.208Z,65.11
2023-06-18T15:31:11.848Z,63.89
2023-06-18T15:33:59.671Z,64.21
2023-06-18T15:36:47.396Z,63.45
2023-06-18T15:39:35.303Z,63.74
2023-06-18T15:42:23.139Z,62.94
2023-06-18T15:45:11.766Z,62.90
2023-06-18T15:48:00.853Z,63.39
2023-06-18T15:50:49.356Z,62.75
2023-06-18T15:53:37.125Z,64.06
2023-06-18T15:56:25.467Z,66.04
2023-06-18T15:59:14.010Z,64.65
2023-06-18T16:02:02.968Z,64.31
2023-06-18T16:04:52.295Z,64.79
2023-06-18T16:07:40.766Z,64.66
2023-06-18T16:10:28.822Z,64.82
2023-06-18T16:13:16.761Z,66.41
2023-06-18T16:16:04.727Z,65.05
2023-06-18T16:18:52.390Z,64.91
2023-06-18T16:21:41.768Z,64.83
2023-06-18T16:24:29.690Z,64.58
2023-06-18T16:27:17.650Z,65.14
2023-06-18T16:30:06.120Z,66.13
2023-06-18T16:32:53.984Z,66.53
2023-06-18T16:35:41.849Z,66.41
2023-06-18T16:38:31.196Z,68.73
2023-06-18T16:41:18.975Z,69.65
2023-06-18T16:44:06.824Z,71.41
2023-06-18T16:46:54.614Z,70.31
2023-06-18T16:49:42.370Z,71.82
2023-06-18T16:52:30.276Z,71.79
2023-06-18T16:55:19.912Z,71.79
2023-06-18T16:58:10.001Z,73.05
2023-06-18T17:00:57.806Z,71.93
2023-06-18T17:03:45.836Z,72.98
2023-06-18T17:06:34.750Z,75.26
2023-06-18T17:09:22.596Z,73.61
2023-06-18T17:12:11.735Z,72.95
2023-06-18T17:14:59.441Z,75.92
2023-06-18T17:17:47.159Z,73.48
2023-06-18T17:20:35.268Z,74.68
2023-06-18T17:23:22.999Z,74.15
2023-06-18T17:26:11.410Z,73.94
2023-06-18T17:29:00.830Z,73.65
2023-06-18T17:31:48.520Z,74.13
2023-06-18T17:34:36.424Z,75.54
2023-06-18T17:37:24.251Z,75.44
2023-06-18T17:40:12.588Z,75.56
2023-06-18T17:43:00.373Z,76.97
2023-06-18T17:45:49.610Z,76.58
2023-06-18T17:48:37.459Z,76.83
2023-06-18T17:51:25.303Z,76.65
2023-06-18T17:54:14.244Z,77.78
2023-06-18T17:57:02.184Z,74.82
2023-06-18T17:59:50.029Z,74.85
2023-06-18T18:02:39.168Z,76.52
2023-06-18T18:05:29.214Z,75.09
2023-06-18T18:08:17.008Z,75.47
2023-06-18T18:11:05.065Z,76.18
2023-06-18T18:13:52.796Z,76.22
2023-06-18T18:16:40.627Z,77.80
2023-06-18T18:19:29.838Z,78.84
2023-06-18T18:22:19.462Z,79.94
2023-06-18T18:25:07.908Z,78.63
2023-06-18T18:27:55.714Z,77.81
2023-06-18T18:30:45.109Z,79.21
2023-06-18T18:33:32.798Z,78.83
2023-06-18T18:36:22.187Z,78.48
2023-06-18T18:39:10.041Z,76.35
2023-06-18T18:41:58.022Z,76.18
2023-06-18T18:44:48.507Z,78.44
2023-06-18T18:47:36.333Z,75.47
2023-06-18T18:50:24.704Z,75.97
2023-06-18T18:53:14.032Z,75.86
2023-06-18T18:56:01.802Z,74.95
2023-06-18T18:58:50.041Z,77.22
2023-06-18T19:01:42.781Z,76.39
2023-06-18T19:04:30.794Z,78.06
2023-06-18T19:07:18.730Z,75.65
2023-06-18T19:10:11.916Z,79.06
2023-06-18T19:12:59.659Z,76.56
2023-06-18T19:15:47.583Z,77.33
2023-06-18T19:18:35.327Z,77.92
2023-06-18T19:21:23.291Z,77.52
2023-06-18T19:24:11.094Z,77.86
2023-06-18T19:27:00.466Z,79.55
2023-06-18T19:29:48.439Z,81.16
2023-06-18T19:32:36.514Z,80.01
2023-06-18T19:35:24.628Z,79.72
2023-06-18T19:38:12.648Z,80.33
2023-06-18T19:41:00.470Z,82.38
2023-06-18T19:43:49.743Z,79.64
2023-06-18T19:49:25.455Z,80.67
2023-06-18T19:52:13.478Z,82.01
2023-06-18T19:55:01.183Z,81.47
2023-06-18T19:57:49.333Z,83.75
2023-06-18T20:00:39.569Z,82.78
2023-06-18T20:03:27.493Z,81.63
2023-06-18T20:06:15.545Z,80.41
2023-06-18T20:09:03.371Z,81.40
2023-06-18T20:11:51.141Z,82.11
2023-06-18T20:14:38.861Z,83.29
2023-06-18T20:17:28.350Z,83.33
2023-06-18T20:20:18.266Z,83.23
2023-06-18T20:23:06.111Z,82.31
2023-06-18T20:25:53.829Z,81.16
2023-06-18T20:28:41.783Z,81.64
2023-06-18T20:31:29.836Z,81.68
2023-06-18T20:34:19.173Z,82.93
2023-06-18T20:37:08.037Z,83.95
2023-06-18T20:39:56.042Z,83.08
2023-06-18T20:42:43.824Z,85.03
2023-06-18T20:45:31.581Z,84.12
2023-06-18T20:48:19.488Z,83.85
2023-06-18T20:51:08.593Z,82.87
2023-06-18T20:53:59.771Z,83.53
2023-06-18T20:56:47.675Z,82.08
2023-06-18T20:59:35.680Z,82.48
2023-06-18T21:02:24.839Z,83.27
2023-06-18T21:05:13.375Z,82.70
2023-06-18T21:08:02.994Z,83.04
2023-06-18T21:10:50.953Z,84.83
2023-06-18T21:13:39.101Z,84.34
2023-06-18T21:16:27.262Z,84.49
2023-06-18T21:19:15.599Z,84.75
2023-06-18T21:22:15.591Z,86.69
2023-06-18T21:25:07.645Z,86.68
2023-06-18T21:28:03.263Z,86.69
2023-06-18T21:30:51.515Z,87.80
2023-06-18T21:33:39.695Z,89.01
2023-06-18T21:36:27.693Z,88.81
2023-06-18T21:39:15.638Z,88.17
2023-06-18T21:42:07.886Z,88.51
2023-06-18T21:44:55.881Z,88.09
2023-06-18T21:47:44.168Z,87.15
2023-06-18T21:50:34.701Z,87.68
2023-06-18T21:53:25.934Z,89.72
2023-06-18T21:56:14.009Z,87.95
2023-06-18T21:59:05.717Z,88.24
2023-06-18T22:01:55.383Z,88.92
2023-06-18T22:04:43.534Z,88.23
2023-06-18T22:07:32.931Z,87.06
2023-06-18T22:10:21.092Z,88.21
2023-06-18T22:13:09.461Z,86.46
2023-06-18T22:15:58.780Z,87.60
2023-06-18T22:18:47.769Z,86.37
2023-06-18T22:21:35.673Z,86.95
2023-06-18T22:24:23.728Z,86.93
2023-06-18T22:27:11.629Z,87.36
2023-06-18T22:30:00.559Z,85.80
2023-06-18T22:32:49.933Z,87.46
2023-06-18T22:35:38.748Z,87.62
2023-06-18T22:38:29.776Z,87.55
2023-06-18T22:41:18.244Z,88.11
2023-06-18T22:44:07.495Z,88.05
2023-06-18T22:46:55.411Z,88.01
2023-06-18T22:49:44.818Z,88.56
2023-06-18T22:52:32.723Z,88.20
2023-06-18T22:58:09.598Z,89.50
2023-06-18T23:00:57.587Z,88.55
2023-06-18T23:03:45.690Z,89.47
2023-06-18T23:06:35.145Z,90.55
2023-06-18T23:09:23.220Z,90.47
2023-06-18T23:12:11.576Z,90.70
2023-06-18T23:14:59.357Z,90.18
2023-06-18T23:17:47.391Z,90.28
2023-06-18T23:20:35.422Z,89.75
2023-06-18T23:23:30.876Z,88.25
2023-06-18T23:26:20.765Z,88.30
2023-06-18T23:29:10.875Z,87.77
2023-06-18T23:31:59.103Z,88.78
2023-06-18T23:34:47.282Z,88.93
2023-06-18T23:37:36.673Z,88.63
2023-06-18T23:40:26.482Z,89.90
2023-06-18T23:43:14.666Z,89.04
2023-06-18T23:46:02.744Z,89.74
2023-06-18T23:48:50.740Z,88.83
2023-06-18T23:51:39.701Z,89.14
2023-06-18T23:54:27.654Z,88.58
2023-06-18T23:57:17.221Z,89.35
